Time,TemperatureF,DewpointF,PressureIn,WindDirection,WindDirectionDegrees,WindSpeedMPH,WindSpeedGustMPH,Humidity,HourlyPrecipIn,Conditions,Clouds,dailyrainin,SoftwareType,DateUTC
2013-03-11 00:03:00,50.4,45.7,29.83,South,180,8.3,8.3,84,0.04,RA,,0.00,WeatherDisplay:10.37,2013-03-11 05:03:00,
2013-03-11 00:08:00,50.4,46.0,29.83,South,180,3.5,3.5,85,0.04,RA,,0.00,WeatherDisplay:10.37,2013-03-11 05:08:00,
2013-03-11 00:13:00,50.5,46.2,29.84,South,180,3.5,3.6,85,0.04,CLR,,0.00,WeatherDisplay:10.37,2013-03-11 05:13:00,
2013-03-11 00:18:00,50.5,46.5,29.83,SSW,202,6.3,6.3,86,0.04,CLR,,0.00,WeatherDisplay:10.37,2013-03-11 05:18:00,
2013-03-11 00:23:00,50.7,46.7,29.83,SSE,158,3.5,4.0,86,0.04,CLR,,0.00,WeatherDisplay:10.37,2013-03-11 05:23:00,
2013-03-11 00:28:00,50.7,46.7,29.83,South,180,1.2,1.2,86,0.04,CLR,,0.00,WeatherDisplay:10.37,2013-03-11 05:28:00,
2013-03-11 00:33:00,50.7,47.0,29.84,South,180,4.6,0.0,87,0.04,CLR,,0.00,WeatherDisplay:10.37,2013-03-11 05:33:00,
2013-03-11 00:38:00,50.7,47.0,29.83,South,180,5.8,5.8,87,0.02,CLR,,0.00,WeatherDisplay:10.37,2013-03-11 05:38:00,
2013-03-11 00:43:00,50.7,47.0,29.83,South,180,2.3,2.3,87,0.02,CLR,,0.00,WeatherDisplay:10.37,2013-03-11 05:43:00,
2013-03-11 00:48:00,50.7,47.0,29.83,SSW,202,5.8,5.8,87,0.02,CLR,,0.00,WeatherDisplay:10.37,2013-03-11 05:48:00,
2013-03-11 00:53:00,50.5,46.8,29.83,South,180,0.0,0.0,87,0.00,CLR,,0.00,WeatherDisplay:10.37,2013-03-11 05:53:00,
2013-03-11 00:58:00,50.5,46.8,29.83,South,180,1.2,1.2,87,0.00,CLR,,0.00,WeatherDisplay:10.37,2013-03-11 05:58:00,
2013-03-11 01:03:00,50.5,46.8,29.83,South,180,4.6,4.6,87,0.00,CLR,,0.00,WeatherDisplay:10.37,2013-03-11 06:03:00,
2013-03-11 01:08:00,50.5,46.8,29.83,South,180,2.3,2.5,87,0.00,CLR,,0.00,WeatherDisplay:10.37,2013-03-11 06:08:00,
2013-03-11 01:13:00,50.7,47.0,29.83,SSW,202,4.6,4.6,87,0.00,CLR,,0.00,WeatherDisplay:10.37,2013-03-11 06:13:00,
2013-03-11 01:18:00,50.7,47.0,29.83,SSW,202,0.0,0.0,87,0.00,CLR,,0.00,WeatherDisplay:10.37,2013-03-11 06:18:00,
2013-03-11 01:23:00,50.7,47.0,29.83,SSW,202,1.1,1.1,87,0.00,CLR,,0.00,WeatherDisplay:10.37,2013-03-11 06:23:00,
2013-03-11 01:28:00,50.7,47.3,29.83,South,180,0.0,0.0,88,0.00,CLR,,0.00,WeatherDisplay:10.37,2013-03-11 06:28:00,
2013-03-11 01:33:00,50.7,47.0,29.83,SW,225,0.0,0.0,87,0.00,CLR,,0.00,WeatherDisplay:10.37,2013-03-11 06:33:00,
2013-03-11 01:38:00,50.7,47.3,29.83,SSW,202,5.8,5.8,88,0.00,CLR,,0.00,WeatherDisplay:10.37,2013-03-11 06:38:00,
2013-03-11 01:43:00,50.7,47.3,29.83,SSW,202,6.9,6.9,88,0.00,CLR,,0.00,WeatherDisplay:10.37,2013-03-11 06:43:00,
2013-03-11 01:48:00,50.7,47.0,29.83,SSW,202,1.2,1.2,87,0.00,CLR,,0.00,WeatherDisplay:10.37,2013-03-11 06:48:00,
2013-03-11 01:53:00,50.5,46.8,29.83,SSW,202,3.5,3.5,87,0.00,CLR,,0.00,WeatherDisplay:10.37,2013-03-11 06:53:00,
2013-03-11 01:58:00,50.5,46.8,29.83,SSW,202,2.3,2.5,87,0.00,CLR,,0.00,WeatherDisplay:10.37,2013-03-11 06:58:00,
2013-03-11 02:03:00,50.5,46.8,29.83,SSW,202,3.5,3.8,87,0.00,CLR,,0.00,WeatherDisplay:10.37,2013-03-11 07:03:00,
2013-03-11 02:08:00,50.4,46.3,29.83,SSW,202,6.9,6.9,86,0.00,CLR,,0.00,WeatherDisplay:10.37,2013-03-11 07:08:00,
2013-03-11 02:13:00,50.4,46.0,29.83,SSW,202,3.5,0.0,85,0.00,CLR,,0.00,WeatherDisplay:10.37,2013-03-11 07:13:00,
2013-03-11 02:18:00,50.2,45.8,29.83,SSW,202,0.0,0.0,85,0.00,CLR,,0.00,WeatherDisplay:10.37,2013-03-11 07:18:00,
2013-03-11 02:23:00,49.8,45.2,29.83,South,180,5.8,5.8,84,0.00,CLR,,0.00,WeatherDisplay:10.37,2013-03-11 07:23:00,
2013-03-11 02:28:00,49.8,45.2,29.83,SSW,202,2.3,0.0,84,0.00,CLR,,0.00,WeatherDisplay:10.37,2013-03-11 07:28:00,
2013-03-11 02:33:00,49.6,45.0,29.83,SW,225,0.0,0.0,84,0.00,CLR,,0.00,WeatherDisplay:10.37,2013-03-11 07:33:00,
2013-03-11 02:38:00,49.6,45.0,29.83,SW,225,0.0,1.6,84,0.00,CLR,,0.00,WeatherDisplay:10.37,2013-03-11 07:38:00,
2013-03-11 02:43:00,49.5,44.8,29.83,SSW,202,0.0,0.0,84,0.00,CLR,,0.00,WeatherDisplay:10.37,2013-03-11 07:43:00,
2013-03-11 02:48:00,49.5,44.8,29.82,South,180,0.0,0.0,84,0.00,CLR,,0.00,WeatherDisplay:10.37,2013-03-11 07:48:00,
2013-03-11 02:53:00,49.1,44.5,29.82,SSW,202,0.0,0.0,84,0.00,CLR,,0.00,WeatherDisplay:10.37,2013-03-11 07:53:00,
2013-03-11 02:58:00,48.9,44.3,29.82,SSW,202,1.2,0.0,84,0.00,CLR,,0.00,WeatherDisplay:10.37,2013-03-11 07:58:00,
2013-03-11 03:03:00,48.6,43.9,29.82,South,180,0.0,0.0,84,0.00,CLR,,0.00,WeatherDisplay:10.37,2013-03-11 08:03:00,
2013-03-11 03:08:00,48.4,43.8,29.82,South,180,0.0,0.0,84,0.00,CLR,,0.00,WeatherDisplay:10.37,2013-03-11 08:08:00,
2013-03-11 03:13:00,48.4,43.8,29.82,South,180,0.0,0.0,84,0.00,CLR,,0.00,WeatherDisplay:10.37,2013-03-11 08:13:00,
2013-03-11 03:18:00,48.4,44.1,29.82,SSW,202,2.3,2.3,85,0.00,CLR,,0.00,WeatherDisplay:10.37,2013-03-11 08:18:00,
2013-03-11 03:23:00,48.4,44.1,29.81,SSW,202,0.0,0.0,85,0.00,CLR,,0.00,WeatherDisplay:10.37,2013-03-11 08:23:00,
2013-03-11 03:28:00,48.4,44.1,29.81,South,180,0.0,0.0,85,0.00,CLR,,0.00,WeatherDisplay:10.37,2013-03-11 08:28:00,
2013-03-11 03:33:00,48.4,44.1,29.81,SSW,202,0.0,0.0,85,0.00,CLR,,0.00,WeatherDisplay:10.37,2013-03-11 08:33:00,
2013-03-11 03:38:00,48.4,44.1,29.81,SSW,202,0.0,0.0,85,0.00,CLR,,0.00,WeatherDisplay:10.37,2013-03-11 08:38:00,
2013-03-11 03:43:00,48.4,44.1,29.81,South,180,0.0,0.0,85,0.00,CLR,,0.00,WeatherDisplay:10.37,2013-03-11 08:43:00,
2013-03-11 03:48:00,48.4,44.1,29.81,South,180,0.0,0.0,85,0.00,CLR,,0.00,WeatherDisplay:10.37,2013-03-11 08:48:00,
2013-03-11 03:53:00,48.4,44.1,29.81,South,180,0.0,0.0,85,0.00,CLR,,0.00,WeatherDisplay:10.37,2013-03-11 08:53:00,
2013-03-11 03:58:00,48.2,43.9,29.81,SSW,202,0.0,0.0,85,0.00,CLR,,0.00,WeatherDisplay:10.37,2013-03-11 08:58:00,
2013-03-11 04:03:00,48.0,43.7,29.81,South,180,0.0,0.0,85,0.00,CLR,,0.00,WeatherDisplay:10.37,2013-03-11 09:03:00,
2013-03-11 04:08:00,48.0,43.7,29.81,SSW,202,0.0,0.0,85,0.00,CLR,,0.00,WeatherDisplay:10.37,2013-03-11 09:08:00,
2013-03-11 04:13:00,47.8,43.5,29.81,SSW,202,0.0,0.0,85,0.00,CLR,,0.00,WeatherDisplay:10.37,2013-03-11 09:13:00,
2013-03-11 04:18:00,48.2,43.9,29.80,SSW,202,0.0,0.0,85,0.00,CLR,,0.00,WeatherDisplay:10.37,2013-03-11 09:18:00,
2013-03-11 04:23:00,48.2,43.9,29.80,SSW,202,0.0,0.0,85,0.00,CLR,,0.00,WeatherDisplay:10.37,2013-03-11 09:23:00,
2013-03-11 04:28:00,48.2,43.9,29.80,SSW,202,0.0,0.0,85,0.00,CLR,,0.00,WeatherDisplay:10.37,2013-03-11 09:28:00,
2013-03-11 04:33:00,48.2,43.9,29.80,SSW,202,0.0,0.0,85,0.00,CLR,,0.00,WeatherDisplay:10.37,2013-03-11 09:33:00,
2013-03-11 04:38:00,47.8,43.5,29.80,South,180,0.0,0.0,85,0.00,CLR,,0.00,WeatherDisplay:10.37,2013-03-11 09:38:00,
2013-03-11 04:43:00,47.8,43.2,29.79,South,180,0.0,0.0,84,0.00,CLR,,0.00,WeatherDisplay:10.37,2013-03-11 09:43:00,
2013-03-11 04:48:00,47.7,43.1,29.79,South,180,0.0,0.0,84,0.00,CLR,,0.00,WeatherDisplay:10.37,2013-03-11 09:48:00,
2013-03-11 04:53:00,47.3,42.7,29.79,South,180,0.0,0.0,84,0.00,CLR,,0.00,WeatherDisplay:10.37,2013-03-11 09:53:00,
2013-03-11 04:58:00,47.3,42.7,29.79,South,180,0.0,0.0,84,0.00,CLR,,0.00,WeatherDisplay:10.37,2013-03-11 09:58:00,
2013-03-11 05:03:00,47.1,42.8,29.79,South,180,0.0,0.0,85,0.00,CLR,,0.00,WeatherDisplay:10.37,2013-03-11 10:03:00,
2013-03-11 05:08:00,46.9,42.7,29.80,South,180,0.0,0.0,85,0.00,CLR,,0.00,WeatherDisplay:10.37,2013-03-11 10:08:00,
2013-03-11 05:13:00,46.8,42.5,29.79,South,180,0.0,0.0,85,0.00,CLR,,0.00,WeatherDisplay:10.37,2013-03-11 10:13:00,
2013-03-11 05:18:00,46.6,42.3,29.79,South,180,0.0,0.0,85,0.00,CLR,,0.00,WeatherDisplay:10.37,2013-03-11 10:18:00,
2013-03-11 05:24:00,46.4,42.1,29.79,South,180,0.0,0.0,85,0.00,CLR,,0.00,WeatherDisplay:10.37,2013-03-11 10:24:00,
2013-03-11 05:29:00,46.0,41.8,29.78,SSE,158,0.0,0.0,85,0.00,CLR,,0.00,WeatherDisplay:10.37,2013-03-11 10:29:00,
2013-03-11 05:34:00,45.5,41.3,29.78,SE,135,0.0,0.0,85,0.00,CLR,,0.00,WeatherDisplay:10.37,2013-03-11 10:34:00,
2013-03-11 05:39:00,45.3,41.1,29.79,SE,135,0.0,0.0,85,0.00,CLR,,0.00,WeatherDisplay:10.37,2013-03-11 10:39:00,
2013-03-11 05:44:00,45.0,40.7,29.80,SE,135,0.0,0.0,85,0.00,CLR,,0.00,WeatherDisplay:10.37,2013-03-11 10:44:00,
2013-03-11 05:49:00,44.8,40.5,29.80,SE,135,0.0,0.0,85,0.00,CLR,,0.00,WeatherDisplay:10.37,2013-03-11 10:49:00,
2013-03-11 05:54:00,45.0,40.7,29.79,SE,135,0.0,0.0,85,0.00,CLR,,0.00,WeatherDisplay:10.37,2013-03-11 10:54:00,
2013-03-11 05:59:00,45.1,40.9,29.80,SE,135,0.0,0.0,85,0.00,CLR,,0.00,WeatherDisplay:10.37,2013-03-11 10:59:00,
2013-03-11 06:04:00,45.1,40.9,29.80,SE,135,0.0,0.0,85,0.00,CLR,,0.00,WeatherDisplay:10.37,2013-03-11 11:04:00,
2013-03-11 06:09:00,45.5,41.6,29.80,SSE,158,0.0,0.0,86,0.00,CLR,,0.00,WeatherDisplay:10.37,2013-03-11 11:09:00,
2013-03-11 06:14:00,45.7,41.7,29.80,SSE,158,0.0,0.0,86,0.00,CLR,,0.00,WeatherDisplay:10.37,2013-03-11 11:14:00,
2013-03-11 06:19:00,45.9,41.9,29.80,SSE,158,0.0,0.0,86,0.00,CLR,,0.00,WeatherDisplay:10.37,2013-03-11 11:19:00,
2013-03-11 06:24:00,45.9,41.9,29.80,SSE,158,0.0,0.0,86,0.00,CLR,,0.00,WeatherDisplay:10.37,2013-03-11 11:24:00,
2013-03-11 06:29:00,46.0,42.4,29.81,South,180,0.0,0.0,87,0.00,CLR,,0.00,WeatherDisplay:10.37,2013-03-11 11:29:00,
2013-03-11 06:34:00,46.0,42.4,29.81,South,180,0.0,0.0,87,0.00,CLR,,0.00,WeatherDisplay:10.37,2013-03-11 11:34:00,
2013-03-11 06:39:00,46.4,42.7,29.80,South,180,0.0,0.0,87,0.00,CLR,,0.00,WeatherDisplay:10.37,2013-03-11 11:39:00,
2013-03-11 06:44:00,46.4,42.7,29.80,SSW,202,0.0,0.0,87,0.00,CLR,,0.00,WeatherDisplay:10.37,2013-03-11 11:44:00,
2013-03-11 06:49:00,46.2,42.6,29.80,South,180,0.0,0.0,87,0.00,CLR,,0.00,WeatherDisplay:10.37,2013-03-11 11:49:00,
2013-03-11 06:54:00,46.2,42.6,29.80,SE,135,0.0,0.0,87,0.00,CLR,,0.00,WeatherDisplay:10.37,2013-03-11 11:54:00,
2013-03-11 06:59:00,46.2,42.6,29.80,SSE,158,0.0,0.0,87,0.00,CLR,,0.00,WeatherDisplay:10.37,2013-03-11 11:59:00,
2013-03-11 07:04:00,46.4,43.0,29.80,SSE,158,0.0,0.0,88,0.00,CLR,,0.00,WeatherDisplay:10.37,2013-03-11 12:04:00,
2013-03-11 07:09:00,46.2,42.9,29.79,SSE,158,0.0,0.0,88,0.00,CLR,,0.00,WeatherDisplay:10.37,2013-03-11 12:09:00,
2013-03-11 07:14:00,46.0,42.7,29.79,South,180,0.0,0.0,88,0.00,CLR,,0.00,WeatherDisplay:10.37,2013-03-11 12:14:00,
2013-03-11 07:19:00,46.0,42.7,29.79,South,180,0.0,0.0,88,0.00,CLR,,0.00,WeatherDisplay:10.37,2013-03-11 12:19:00,
2013-03-11 07:24:00,45.9,42.5,29.80,SSE,158,0.0,0.0,88,0.00,CLR,,0.00,WeatherDisplay:10.37,2013-03-11 12:24:00,
2013-03-11 07:29:00,46.0,42.7,29.79,SSE,158,0.0,0.0,88,0.00,CLR,,0.00,WeatherDisplay:10.37,2013-03-11 12:29:00,
2013-03-11 07:34:00,46.0,42.7,29.79,South,180,0.0,0.0,88,0.00,CLR,,0.00,WeatherDisplay:10.37,2013-03-11 12:34:00,
2013-03-11 07:39:00,46.4,43.0,29.79,South,180,3.5,3.5,88,0.00,CLR,,0.00,WeatherDisplay:10.37,2013-03-11 12:39:00,
2013-03-11 07:44:00,46.6,43.2,29.79,South,180,0.0,0.0,88,0.00,CLR,,0.00,WeatherDisplay:10.37,2013-03-11 12:44:00,
2013-03-11 07:49:00,46.6,43.5,29.79,South,180,0.0,0.0,89,0.00,CLR,,0.00,WeatherDisplay:10.37,2013-03-11 12:49:00,
2013-03-11 07:54:00,46.6,43.5,29.80,South,180,0.0,0.0,89,0.00,CLR,,0.00,WeatherDisplay:10.37,2013-03-11 12:54:00,
2013-03-11 07:59:00,46.6,43.5,29.79,South,180,0.0,0.0,89,0.00,CLR,,0.00,WeatherDisplay:10.37,2013-03-11 12:59:00,
2013-03-11 08:04:00,46.6,43.5,29.79,South,180,0.0,0.0,89,0.00,CLR,,0.00,WeatherDisplay:10.37,2013-03-11 13:04:00,
2013-03-11 08:09:00,46.8,43.7,29.78,SSW,202,2.3,2.3,89,0.00,CLR,,0.00,WeatherDisplay:10.37,2013-03-11 13:09:00,
2013-03-11 08:14:00,46.8,43.7,29.78,South,180,2.3,2.3,89,0.00,CLR,,0.00,WeatherDisplay:10.37,2013-03-11 13:14:00,
2013-03-11 08:19:00,46.6,43.5,29.78,SSW,202,5.8,5.8,89,0.00,CLR,,0.00,WeatherDisplay:10.37,2013-03-11 13:19:00,
2013-03-11 08:24:00,46.4,43.3,29.78,WSW,248,0.0,0.0,89,0.00,CLR,,0.00,WeatherDisplay:10.37,2013-03-11 13:24:00,
2013-03-11 08:29:00,46.0,43.0,29.79,WSW,248,6.9,6.9,89,0.00,CLR,,0.00,WeatherDisplay:10.37,2013-03-11 13:29:00,
2013-03-11 08:34:00,45.5,42.4,29.79,SW,225,0.0,0.0,89,0.00,CLR,,0.00,WeatherDisplay:10.37,2013-03-11 13:34:00,
2013-03-11 08:39:00,45.3,42.3,29.79,SW,225,0.4,0.4,89,0.00,CLR,,0.00,WeatherDisplay:10.37,2013-03-11 13:39:00,
2013-03-11 08:44:00,45.0,41.9,29.79,SW,225,0.0,0.0,89,0.00,CLR,,0.00,WeatherDisplay:10.37,2013-03-11 13:44:00,
2013-03-11 08:49:00,44.8,41.4,29.78,SW,225,6.9,7.0,88,0.00,CLR,,0.00,WeatherDisplay:10.37,2013-03-11 13:49:00,
2013-03-11 08:54:00,44.6,41.3,29.78,SW,225,3.5,3.5,88,0.00,CLR,,0.00,WeatherDisplay:10.37,2013-03-11 13:54:00,
2013-03-11 08:59:00,44.6,41.3,29.78,SSW,202,1.6,1.6,88,0.00,CLR,,0.00,WeatherDisplay:10.37,2013-03-11 13:59:00,
2013-03-11 09:04:00,44.2,40.6,29.78,SW,225,6.5,6.5,87,0.00,CLR,,0.00,WeatherDisplay:10.37,2013-03-11 14:04:00,
2013-03-11 09:09:00,44.1,40.4,29.79,SW,225,5.8,0.0,87,0.00,CLR,,0.00,WeatherDisplay:10.37,2013-03-11 14:09:00,
2013-03-11 09:14:00,43.5,39.6,29.79,SW,225,0.0,0.0,86,0.00,CLR,,0.00,WeatherDisplay:10.37,2013-03-11 14:14:00,
2013-03-11 09:19:00,43.2,39.6,29.79,SW,225,2.3,2.3,87,0.00,CLR,,0.00,WeatherDisplay:10.37,2013-03-11 14:19:00,
2013-03-11 09:24:00,43.2,39.6,29.78,SW,225,0.0,0.0,87,0.00,CLR,,0.00,WeatherDisplay:10.37,2013-03-11 14:24:00,
2013-03-11 09:29:00,43.0,39.4,29.78,West,270,0.0,0.0,87,0.00,CLR,,0.00,WeatherDisplay:10.37,2013-03-11 14:29:00,
2013-03-11 09:34:00,43.0,39.4,29.78,SW,225,5.8,5.8,87,0.00,CLR,,0.00,WeatherDisplay:10.37,2013-03-11 14:34:00,
2013-03-11 09:39:00,43.0,39.4,29.78,WSW,248,5.8,5.8,87,0.00,CLR,,0.00,WeatherDisplay:10.37,2013-03-11 14:39:00,
2013-03-11 09:44:00,43.0,39.4,29.79,SSW,202,0.0,0.0,87,0.00,CLR,,0.00,WeatherDisplay:10.37,2013-03-11 14:44:00,
2013-03-11 09:49:00,42.8,39.2,29.78,SSW,202,4.6,4.6,87,0.00,CLR,,0.00,WeatherDisplay:10.37,2013-03-11 14:49:00,
2013-03-11 09:54:00,42.6,39.0,29.78,SSW,202,3.5,0.0,87,0.00,CLR,,0.00,WeatherDisplay:10.37,2013-03-11 14:54:00,
2013-03-11 09:59:00,42.4,38.8,29.78,SW,225,2.2,2.2,87,0.02,RA,,0.02,WeatherDisplay:10.37,2013-03-11 14:59:00,
2013-03-11 10:04:00,42.3,38.7,29.78,SSW,202,5.8,5.8,87,0.02,RA,,0.02,WeatherDisplay:10.37,2013-03-11 15:04:00,
2013-03-11 10:09:00,41.9,38.3,29.78,SW,225,4.9,4.9,87,0.02,CLR,,0.02,WeatherDisplay:10.37,2013-03-11 15:09:00,
2013-03-11 10:14:00,41.9,38.3,29.78,South,180,0.0,0.0,87,0.02,CLR,,0.02,WeatherDisplay:10.37,2013-03-11 15:14:00,
2013-03-11 10:19:00,41.9,38.3,29.78,SW,225,0.0,0.0,87,0.02,CLR,,0.02,WeatherDisplay:10.37,2013-03-11 15:19:00,
2013-03-11 10:24:00,41.9,38.3,29.78,SW,225,0.0,0.0,87,0.02,CLR,,0.02,WeatherDisplay:10.37,2013-03-11 15:24:00,
2013-03-11 10:29:00,41.9,38.3,29.78,SW,225,0.0,0.0,87,0.02,CLR,,0.02,WeatherDisplay:10.37,2013-03-11 15:29:00,
2013-03-11 10:34:00,41.9,38.3,29.77,SW,225,0.0,0.0,87,0.02,CLR,,0.02,WeatherDisplay:10.37,2013-03-11 15:34:00,
2013-03-11 10:39:00,41.9,38.3,29.78,SSW,202,4.6,4.7,87,0.02,CLR,,0.02,WeatherDisplay:10.37,2013-03-11 15:39:00,
2013-03-11 10:44:00,41.9,38.3,29.78,SSW,202,4.6,4.7,87,0.02,CLR,,0.02,WeatherDisplay:10.37,2013-03-11 15:44:00,
2013-03-11 10:49:00,41.9,38.3,29.78,SSW,202,4.6,4.7,87,0.02,CLR,,0.02,WeatherDisplay:10.37,2013-03-11 15:49:00,
2013-03-11 10:54:00,41.9,38.3,29.78,SSW,202,4.6,4.7,87,0.02,CLR,,0.02,WeatherDisplay:10.37,2013-03-11 15:54:00,
2013-03-11 10:59:00,41.9,38.3,29.78,SSW,204,4.7,4.7,87,0.00,CLR,,0.02,WeatherDisplay:10.37,2013-03-11 15:59:00,
2013-03-11 11:04:00,41.9,38.3,29.78,SSW,204,4.7,4.7,87,0.00,CLR,,0.02,WeatherDisplay:10.37,2013-03-11 16:04:00,
2013-03-11 11:09:00,41.9,38.3,29.78,SSW,204,4.6,4.7,87,0.00,CLR,,0.02,WeatherDisplay:10.37,2013-03-11 16:09:00,
2013-03-11 11:14:00,41.9,38.3,29.78,SSW,204,4.7,4.7,87,0.00,CLR,,0.02,WeatherDisplay:10.37,2013-03-11 16:14:00,
2013-03-11 11:19:00,41.9,38.3,29.79,SSW,204,4.7,4.7,87,0.00,CLR,,0.02,WeatherDisplay:10.37,2013-03-11 16:19:00,
2013-03-11 11:24:00,41.9,38.3,29.79,SSW,204,4.7,4.7,87,0.00,CLR,,0.02,WeatherDisplay:10.37,2013-03-11 16:24:00,
2013-03-11 11:29:00,41.2,37.6,29.78,SW,225,8.1,8.1,87,0.00,CLR,,0.02,WeatherDisplay:10.37,2013-03-11 16:29:00,
2013-03-11 11:34:00,41.2,37.3,29.78,SW,225,10.5,10.5,86,0.00,CLR,,0.02,WeatherDisplay:10.37,2013-03-11 16:34:00,
2013-03-11 11:39:00,41.2,37.3,29.78,SW,225,2.3,2.3,86,0.02,RA,,0.04,WeatherDisplay:10.37,2013-03-11 16:39:00,
2013-03-11 11:44:00,41.4,37.2,29.78,WSW,248,3.5,3.5,85,0.02,RA,,0.04,WeatherDisplay:10.37,2013-03-11 16:44:00,
2013-03-11 11:49:00,41.4,37.2,29.78,SSW,202,3.5,3.5,85,0.02,,,0.04,WeatherDisplay:10.37,2013-03-11 16:49:00,
2013-03-11 11:54:00,41.5,37.4,29.78,SSW,202,4.6,4.9,85,0.02,CLR,,0.04,WeatherDisplay:10.37,2013-03-11 16:54:00,
2013-03-11 11:59:00,40.8,36.4,29.78,SW,225,8.1,8.1,84,0.02,CLR,,0.04,WeatherDisplay:10.37,2013-03-11 16:59:00,
2013-03-11 12:04:00,40.6,36.2,29.78,SW,225,2.5,2.5,84,0.02,CLR,,0.04,WeatherDisplay:10.37,2013-03-11 17:04:00,
2013-03-11 12:10:00,41.4,36.9,29.78,SSW,213,2.0,9.0,84,0.00,CLR,,0.04,WeatherDisplay:10.37,2013-03-11 17:10:00,
2013-03-11 12:15:00,41.4,36.6,29.77,SSW,198,6.0,9.0,83,0.00,CLR,,0.04,WeatherDisplay:10.37,2013-03-11 17:15:00,
2013-03-11 12:20:00,41.7,36.3,29.77,SSW,202,0.0,0.0,81,0.02,CLR,,0.04,WeatherDisplay:10.37,2013-03-11 17:20:00,
2013-03-11 12:25:00,42.3,35.9,29.77,SSW,210,5.0,7.0,78,0.00,CLR,,0.04,WeatherDisplay:10.37,2013-03-11 17:25:00,
2013-03-11 12:30:00,41.9,34.9,29.76,WSW,248,9.4,9.4,76,0.02,CLR,,0.04,WeatherDisplay:10.37,2013-03-11 17:30:00,
2013-03-11 12:35:00,41.9,34.6,29.76,SW,214,10.0,11.0,75,0.00,CLR,,0.04,WeatherDisplay:10.37,2013-03-11 17:35:00,
2013-03-11 12:40:00,41.3,34.3,29.76,SSW,212,6.0,11.0,76,0.00,CLR,,0.04,WeatherDisplay:10.37,2013-03-11 17:40:00,
2013-03-11 12:45:00,40.7,33.7,29.76,SSW,206,7.0,9.0,76,0.00,CLR,,0.04,WeatherDisplay:10.37,2013-03-11 17:45:00,
2013-03-11 12:50:00,40.1,33.1,29.76,SSW,202,11.5,11.5,76,0.00,CLR,,0.04,WeatherDisplay:10.37,2013-03-11 17:50:00,
2013-03-11 12:55:00,39.6,33.0,29.76,SW,236,7.0,12.0,77,0.00,CLR,,0.04,WeatherDisplay:10.37,2013-03-11 17:55:00,
2013-03-11 13:00:00,39.5,33.2,29.76,SW,223,12.0,12.0,78,0.00,CLR,,0.04,WeatherDisplay:10.37,2013-03-11 18:00:00,
2013-03-11 13:05:00,39.0,32.7,29.75,SW,217,8.0,10.0,78,0.00,CLR,,0.04,WeatherDisplay:10.37,2013-03-11 18:05:00,
2013-03-11 13:10:00,38.7,32.7,29.75,SW,224,5.0,12.0,79,0.00,CLR,,0.04,WeatherDisplay:10.37,2013-03-11 18:10:00,
2013-03-11 13:15:00,38.3,32.4,29.75,SW,221,9.0,12.0,79,0.00,CLR,,0.04,WeatherDisplay:10.37,2013-03-11 18:15:00,
2013-03-11 13:20:00,38.3,32.7,29.75,SSW,202,6.9,6.9,80,0.00,CLR,,0.04,WeatherDisplay:10.37,2013-03-11 18:20:00,
2013-03-11 13:25:00,38.1,32.5,29.75,WSW,248,15.0,15.0,80,0.00,CLR,,0.04,WeatherDisplay:10.37,2013-03-11 18:25:00,
2013-03-11 13:30:00,37.9,32.6,29.75,SW,225,8.1,8.3,81,0.00,CLR,,0.04,WeatherDisplay:10.37,2013-03-11 18:30:00,
2013-03-11 13:35:00,37.6,32.3,29.75,SW,225,9.2,9.2,81,0.00,CLR,,0.04,WeatherDisplay:10.37,2013-03-11 18:35:00,
2013-03-11 13:40:00,37.6,32.6,29.75,WSW,248,9.6,9.6,82,0.00,CLR,,0.04,WeatherDisplay:10.37,2013-03-11 18:40:00,
2013-03-11 13:45:00,37.4,32.4,29.75,SW,225,6.9,6.9,82,0.00,CLR,,0.04,WeatherDisplay:10.37,2013-03-11 18:45:00,
2013-03-11 13:50:00,37.6,32.6,29.75,SW,225,6.9,7.5,82,0.00,CLR,,0.04,WeatherDisplay:10.37,2013-03-11 18:50:00,
2013-03-11 13:55:00,37.6,32.6,29.75,SW,225,5.8,5.8,82,0.00,CLR,,0.04,WeatherDisplay:10.37,2013-03-11 18:55:00,
2013-03-11 14:00:00,37.6,32.6,29.75,SW,225,5.8,5.8,82,0.00,CLR,,0.04,WeatherDisplay:10.37,2013-03-11 19:00:00,
2013-03-11 14:06:00,37.6,32.6,29.75,SW,225,5.8,5.8,82,0.00,CLR,,0.04,WeatherDisplay:10.37,2013-03-11 19:06:00,
2013-03-11 14:11:00,37.6,32.6,29.75,SW,225,5.8,5.8,82,0.00,CLR,,0.04,WeatherDisplay:10.37,2013-03-11 19:11:00,
2013-03-11 14:16:00,37.0,32.1,29.75,SW,225,5.8,5.8,82,0.00,CLR,,0.04,WeatherDisplay:10.37,2013-03-11 19:16:00,
2013-03-11 14:21:00,36.9,30.6,29.76,WSW,248,12.7,12.7,78,0.00,CLR,,0.04,WeatherDisplay:10.37,2013-03-11 19:21:00,
2013-03-11 14:26:00,36.5,30.3,29.76,SSW,202,5.8,7.0,78,0.00,CLR,,0.04,WeatherDisplay:10.37,2013-03-11 19:26:00,
2013-03-11 14:32:00,36.5,30.3,29.76,SW,225,9.2,9.2,78,0.00,CLR,,0.04,WeatherDisplay:10.37,2013-03-11 19:32:00,
2013-03-11 14:37:00,36.3,30.1,29.76,SSW,202,10.4,10.4,78,0.00,CLR,,0.04,WeatherDisplay:10.37,2013-03-11 19:37:00,
2013-03-11 14:42:00,36.1,30.3,29.76,South,180,9.2,9.2,79,0.00,CLR,,0.04,WeatherDisplay:10.37,2013-03-11 19:42:00,
2013-03-11 14:47:00,35.8,29.9,29.77,SSW,202,11.5,11.5,79,0.00,CLR,,0.04,WeatherDisplay:10.37,2013-03-11 19:47:00,
2013-03-11 14:52:00,35.8,30.2,29.77,SSW,202,13.2,13.2,80,0.00,CLR,,0.04,WeatherDisplay:10.37,2013-03-11 19:52:00,
2013-03-11 14:57:00,35.8,30.2,29.77,SSW,202,11.5,11.5,80,0.00,CLR,,0.04,WeatherDisplay:10.37,2013-03-11 19:57:00,
2013-03-11 15:02:00,35.6,30.3,29.78,SW,225,12.7,12.7,81,0.00,CLR,,0.04,WeatherDisplay:10.37,2013-03-11 20:02:00,
2013-03-11 15:07:00,35.8,30.5,29.77,SW,225,9.2,9.2,81,0.00,CLR,,0.04,WeatherDisplay:10.37,2013-03-11 20:07:00,
2013-03-11 15:13:00,35.6,30.3,29.77,SW,225,9.6,9.6,81,0.00,CLR,,0.04,WeatherDisplay:10.37,2013-03-11 20:13:00,
2013-03-11 15:18:00,35.8,30.5,29.78,SSW,202,11.5,11.5,81,0.00,CLR,,0.04,WeatherDisplay:10.37,2013-03-11 20:18:00,
2013-03-11 15:23:00,36.0,30.7,29.78,SSW,202,6.9,6.9,81,0.00,CLR,,0.04,WeatherDisplay:10.37,2013-03-11 20:23:00,
2013-03-11 15:28:00,36.0,30.7,29.78,SW,225,10.4,10.7,81,0.00,CLR,,0.04,WeatherDisplay:10.37,2013-03-11 20:28:00,
2013-03-11 15:33:00,36.0,30.7,29.78,WSW,248,5.8,5.8,81,0.00,CLR,,0.04,WeatherDisplay:10.37,2013-03-11 20:33:00,
2013-03-11 15:38:00,36.0,30.7,29.78,South,180,12.7,12.7,81,0.00,CLR,,0.04,WeatherDisplay:10.37,2013-03-11 20:38:00,
2013-03-11 15:44:00,36.0,30.7,29.78,SSW,202,4.0,4.3,81,0.00,CLR,,0.04,WeatherDisplay:10.37,2013-03-11 20:44:00,
2013-03-11 15:49:00,36.0,30.7,29.78,SW,225,11.8,11.8,81,0.00,CLR,,0.04,WeatherDisplay:10.37,2013-03-11 20:49:00,
2013-03-11 15:54:00,35.8,30.5,29.79,SW,225,10.5,10.5,81,0.00,CLR,,0.04,WeatherDisplay:10.37,2013-03-11 20:54:00,
2013-03-11 15:59:00,35.4,30.2,29.79,South,180,10.7,10.7,81,0.00,CLR,,0.04,WeatherDisplay:10.37,2013-03-11 20:59:00,
2013-03-11 16:04:00,35.4,30.5,29.79,SW,225,11.5,11.5,82,0.00,CLR,,0.04,WeatherDisplay:10.37,2013-03-11 21:04:00,
2013-03-11 16:09:00,35.2,30.3,29.79,SSW,202,12.7,12.7,82,0.00,CLR,,0.04,WeatherDisplay:10.37,2013-03-11 21:09:00,
2013-03-11 16:14:00,35.2,30.3,29.79,SSW,202,4.6,4.6,82,0.00,CLR,,0.04,WeatherDisplay:10.37,2013-03-11 21:14:00,
2013-03-11 16:19:00,35.2,30.3,29.79,South,180,9.2,9.2,82,0.00,CLR,,0.04,WeatherDisplay:10.37,2013-03-11 21:19:00,
2013-03-11 16:24:00,35.2,30.3,29.79,South,180,9.2,9.2,82,0.00,CLR,,0.04,WeatherDisplay:10.37,2013-03-11 21:24:00,
2013-03-11 16:29:00,35.1,30.1,29.79,SSW,202,2.3,2.5,82,0.00,CLR,,0.04,WeatherDisplay:10.37,2013-03-11 21:29:00,
2013-03-11 16:34:00,35.2,30.3,29.79,SSW,202,7.2,7.2,82,0.00,CLR,,0.04,WeatherDisplay:10.37,2013-03-11 21:34:00,
2013-03-11 16:39:00,35.2,30.3,29.79,SSW,202,6.9,6.9,82,0.00,CLR,,0.04,WeatherDisplay:10.37,2013-03-11 21:39:00,
2013-03-11 16:44:00,35.2,30.3,29.80,SW,225,9.2,9.2,82,0.00,CLR,,0.04,WeatherDisplay:10.37,2013-03-11 21:44:00,
2013-03-11 16:49:00,35.1,30.1,29.80,South,180,12.7,12.7,82,0.00,CLR,,0.04,WeatherDisplay:10.37,2013-03-11 21:49:00,
2013-03-11 16:54:00,35.1,30.1,29.80,SW,225,10.4,10.4,82,0.00,CLR,,0.04,WeatherDisplay:10.37,2013-03-11 21:54:00,
2013-03-11 16:59:00,35.1,30.1,29.80,SW,225,16.1,16.1,82,0.00,CLR,,0.04,WeatherDisplay:10.37,2013-03-11 21:59:00,
2013-03-11 17:04:00,35.1,30.1,29.80,SW,225,9.2,9.2,82,0.00,CLR,,0.04,WeatherDisplay:10.37,2013-03-11 22:04:00,
2013-03-11 17:09:00,35.1,30.4,29.81,WSW,248,6.9,6.9,83,0.00,CLR,,0.04,WeatherDisplay:10.37,2013-03-11 22:09:00,
2013-03-11 17:14:00,35.2,30.6,29.81,SW,225,8.1,8.5,83,0.00,CLR,,0.04,WeatherDisplay:10.37,2013-03-11 22:14:00,
2013-03-11 17:19:00,35.2,30.6,29.81,SSW,202,12.1,12.1,83,0.00,CLR,,0.04,WeatherDisplay:10.37,2013-03-11 22:19:00,
2013-03-11 17:24:00,35.2,30.6,29.81,South,180,6.9,6.9,83,0.00,CLR,,0.04,WeatherDisplay:10.37,2013-03-11 22:24:00,
2013-03-11 17:29:00,35.2,30.6,29.82,WSW,248,10.4,10.5,83,0.00,CLR,,0.04,WeatherDisplay:10.37,2013-03-11 22:29:00,
2013-03-11 17:34:00,35.2,30.6,29.82,SSW,202,8.1,8.3,83,0.00,CLR,,0.04,WeatherDisplay:10.37,2013-03-11 22:34:00,
2013-03-11 17:39:00,35.4,30.8,29.82,SW,225,12.7,12.7,83,0.00,CLR,,0.04,WeatherDisplay:10.37,2013-03-11 22:39:00,
2013-03-11 17:44:00,35.6,30.6,29.83,WSW,248,10.3,10.3,82,0.00,CLR,,0.04,WeatherDisplay:10.37,2013-03-11 22:44:00,
2013-03-11 17:49:00,35.6,30.6,29.82,WSW,248,7.2,7.2,82,0.00,CLR,,0.04,WeatherDisplay:10.37,2013-03-11 22:49:00,
2013-03-11 17:54:00,35.2,30.0,29.83,SW,225,12.7,0.0,81,0.00,CLR,,0.04,WeatherDisplay:10.37,2013-03-11 22:54:00,
2013-03-11 17:59:00,35.2,30.0,29.84,WSW,248,0.0,0.0,81,0.00,CLR,,0.04,WeatherDisplay:10.37,2013-03-11 22:59:00,
2013-03-11 18:04:00,35.2,30.0,29.84,SW,225,11.5,11.5,81,0.00,CLR,,0.04,WeatherDisplay:10.37,2013-03-11 23:04:00,
2013-03-11 18:09:00,35.2,29.7,29.85,SW,225,10.4,10.4,80,0.00,CLR,,0.04,WeatherDisplay:10.37,2013-03-11 23:09:00,
2013-03-11 18:14:00,35.2,29.7,29.85,WSW,248,8.1,8.1,80,0.00,CLR,,0.04,WeatherDisplay:10.37,2013-03-11 23:14:00,
2013-03-11 18:19:00,35.2,29.4,29.85,WSW,248,10.4,10.4,79,0.00,CLR,,0.04,WeatherDisplay:10.37,2013-03-11 23:19:00,
2013-03-11 18:24:00,35.2,29.4,29.85,SW,225,8.1,8.3,79,0.00,CLR,,0.04,WeatherDisplay:10.37,2013-03-11 23:24:00,
2013-03-11 18:29:00,35.2,29.4,29.85,SW,225,7.6,7.6,79,0.00,CLR,,0.04,WeatherDisplay:10.37,2013-03-11 23:29:00,
2013-03-11 18:34:00,35.1,29.2,29.85,SW,225,5.8,6.3,79,0.00,CLR,,0.04,WeatherDisplay:10.37,2013-03-11 23:34:00,
2013-03-11 18:39:00,34.7,28.9,29.86,SW,225,8.1,8.1,79,0.00,CLR,,0.04,WeatherDisplay:10.37,2013-03-11 23:39:00,
2013-03-11 18:44:00,34.7,28.9,29.86,WSW,248,8.1,8.5,79,0.00,CLR,,0.04,WeatherDisplay:10.37,2013-03-11 23:44:00,
2013-03-11 18:49:00,34.5,29.0,29.86,WSW,248,5.8,0.0,80,0.00,CLR,,0.04,WeatherDisplay:10.37,2013-03-11 23:49:00,
2013-03-11 18:54:00,34.3,28.8,29.87,SW,225,0.0,0.0,80,0.00,CLR,,0.04,WeatherDisplay:10.37,2013-03-11 23:54:00,
2013-03-11 19:00:00,34.2,28.6,29.87,SW,225,15.0,15.0,80,0.00,CLR,,0.04,WeatherDisplay:10.37,2013-03-12 00:00:00,
2013-03-11 19:05:00,34.0,28.5,29.87,SW,223,14.0,16.0,80,0.00,CLR,,0.04,WeatherDisplay:10.37,2013-03-12 00:05:00,
2013-03-11 19:10:00,34.0,28.8,29.87,WSW,248,4.6,7.3,81,0.00,CLR,,0.04,WeatherDisplay:10.37,2013-03-12 00:10:00,
2013-03-11 19:15:00,33.4,28.2,29.87,WSW,248,7.0,8.0,81,0.00,CLR,,0.04,WeatherDisplay:10.37,2013-03-12 00:15:00,
2013-03-11 19:20:00,33.4,28.2,29.87,SW,225,10.4,10.4,81,0.00,CLR,,0.04,WeatherDisplay:10.37,2013-03-12 00:20:00,
2013-03-11 19:25:00,33.4,28.2,29.88,SSW,202,8.1,8.5,81,0.00,CLR,,0.04,WeatherDisplay:10.37,2013-03-12 00:25:00,
2013-03-11 19:30:00,33.4,28.2,29.88,WNW,292,3.5,3.5,81,0.00,CLR,,0.04,WeatherDisplay:10.37,2013-03-12 00:30:00,
2013-03-11 19:35:00,33.3,28.1,29.88,SW,235,2.0,12.0,81,0.00,CLR,,0.04,WeatherDisplay:10.37,2013-03-12 00:35:00,
2013-03-11 19:40:00,33.3,28.1,29.88,WSW,237,1.0,12.0,81,0.00,CLR,,0.04,WeatherDisplay:10.37,2013-03-12 00:40:00,
2013-03-11 19:45:00,33.3,28.1,29.88,SW,226,8.0,8.0,81,0.00,CLR,,0.04,WeatherDisplay:10.37,2013-03-12 00:45:00,
2013-03-11 19:50:00,33.3,27.8,29.90,SW,225,13.8,13.8,80,0.00,CLR,,0.04,WeatherDisplay:10.37,2013-03-12 00:50:00,
2013-03-11 19:55:00,33.3,27.8,29.91,WSW,248,8.5,8.5,80,0.00,CLR,,0.04,WeatherDisplay:10.37,2013-03-12 00:55:00,
2013-03-11 20:00:00,33.3,27.5,29.91,WSW,248,6.3,6.3,79,0.00,CLR,,0.04,WeatherDisplay:10.37,2013-03-12 01:00:00,
2013-03-11 20:05:00,33.3,27.5,29.91,WSW,246,8.0,8.0,79,0.00,CLR,,0.04,WeatherDisplay:10.37,2013-03-12 01:05:00,
2013-03-11 20:10:00,33.3,27.1,29.91,WSW,244,9.0,13.0,78,0.00,CLR,,0.04,WeatherDisplay:10.37,2013-03-12 01:10:00,
2013-03-11 20:15:00,33.4,27.0,29.91,WSW,242,7.0,8.0,77,0.00,CLR,,0.04,WeatherDisplay:10.37,2013-03-12 01:15:00,
2013-03-11 20:20:00,33.4,27.0,29.91,SSW,202,12.1,12.1,77,0.00,CLR,,0.04,WeatherDisplay:10.37,2013-03-12 01:20:00,
2013-03-11 20:25:00,33.4,26.9,29.91,SW,226,1.0,13.0,77,0.00,CLR,,0.04,WeatherDisplay:10.37,2013-03-12 01:25:00,
2013-03-11 20:30:00,33.4,27.0,29.91,WSW,248,8.1,8.1,77,0.00,CLR,,0.04,WeatherDisplay:10.37,2013-03-12 01:30:00,
2013-03-11 20:35:00,33.3,26.8,29.91,WSW,241,8.0,9.0,77,0.00,CLR,,0.04,WeatherDisplay:10.37,2013-03-12 01:35:00,
2013-03-11 20:40:00,33.4,27.0,29.91,WSW,248,11.5,11.5,77,0.00,CLR,,0.04,WeatherDisplay:10.37,2013-03-12 01:40:00,
2013-03-11 20:45:00,33.3,26.5,29.92,WSW,240,10.0,15.0,76,0.00,CLR,,0.04,WeatherDisplay:10.37,2013-03-12 01:45:00,
2013-03-11 20:50:00,33.3,26.5,29.92,WSW,240,6.0,14.0,76,0.00,CLR,,0.04,WeatherDisplay:10.37,2013-03-12 01:50:00,
2013-03-11 20:55:00,33.3,26.5,29.92,SW,231,6.0,8.0,76,0.00,CLR,,0.04,WeatherDisplay:10.37,2013-03-12 01:55:00,
2013-03-11 21:00:00,33.3,26.5,29.92,WSW,248,7.4,7.4,76,0.00,CLR,,0.04,WeatherDisplay:10.37,2013-03-12 02:00:00,
2013-03-11 21:05:00,33.1,26.3,29.93,WSW,248,8.1,8.1,76,0.00,CLR,,0.04,WeatherDisplay:10.37,2013-03-12 02:05:00,
2013-03-11 21:10:00,33.1,26.3,29.92,South,180,8.1,8.1,76,0.00,CLR,,0.04,WeatherDisplay:10.37,2013-03-12 02:10:00,
2013-03-11 21:15:00,32.9,26.2,29.93,SW,220,13.0,16.0,76,0.00,CLR,,0.04,WeatherDisplay:10.37,2013-03-12 02:15:00,
2013-03-11 21:20:00,32.9,26.2,29.93,WSW,248,9.2,9.4,76,0.00,CLR,,0.04,WeatherDisplay:10.37,2013-03-12 02:20:00,
2013-03-11 21:25:00,32.9,26.2,29.93,SW,225,15.0,15.0,76,0.00,CLR,,0.04,WeatherDisplay:10.37,2013-03-12 02:25:00,
2013-03-11 21:30:00,32.9,26.2,29.93,SSW,202,9.2,9.2,76,0.00,CLR,,0.04,WeatherDisplay:10.37,2013-03-12 02:30:00,
2013-03-11 21:35:00,32.9,26.2,29.94,WSW,248,15.6,15.6,76,0.00,CLR,,0.04,WeatherDisplay:10.37,2013-03-12 02:35:00,
2013-03-11 21:40:00,32.9,25.8,29.93,SW,236,14.0,16.0,75,0.00,CLR,,0.04,WeatherDisplay:10.37,2013-03-12 02:40:00,
2013-03-11 21:45:00,32.9,25.8,29.94,SW,222,8.0,13.0,75,0.00,CLR,,0.04,WeatherDisplay:10.37,2013-03-12 02:45:00,
2013-03-11 21:50:00,32.7,25.7,29.94,SW,220,6.0,8.0,75,0.00,CLR,,0.04,WeatherDisplay:10.37,2013-03-12 02:50:00,
2013-03-11 21:55:00,32.9,25.8,29.94,SW,228,12.0,13.0,75,0.00,CLR,,0.04,WeatherDisplay:10.37,2013-03-12 02:55:00,
2013-03-11 22:00:00,32.9,25.8,29.94,WSW,248,9.2,9.2,75,0.00,CLR,,0.04,WeatherDisplay:10.37,2013-03-12 03:00:00,
2013-03-11 22:05:00,32.9,25.5,29.95,West,270,8.3,8.3,74,0.00,CLR,,0.04,WeatherDisplay:10.37,2013-03-12 03:05:00,
2013-03-11 22:10:00,32.7,25.3,29.96,SSW,202,9.2,9.2,74,0.00,CLR,,0.04,WeatherDisplay:10.37,2013-03-12 03:10:00,
2013-03-11 22:15:00,32.9,25.5,29.96,SW,236,10.0,11.0,74,0.00,CLR,,0.04,WeatherDisplay:10.37,2013-03-12 03:15:00,
2013-03-11 22:20:00,32.7,25.3,29.96,WSW,248,15.0,15.0,74,0.00,CLR,,0.04,WeatherDisplay:10.37,2013-03-12 03:20:00,
2013-03-11 22:25:00,32.7,25.3,29.96,SW,225,9.2,9.2,74,0.00,CLR,,0.04,WeatherDisplay:10.37,2013-03-12 03:25:00,
2013-03-11 22:30:00,32.7,25.3,29.96,SW,225,8.1,8.1,74,0.00,CLR,,0.04,WeatherDisplay:10.37,2013-03-12 03:30:00,
2013-03-11 22:35:00,32.5,25.5,29.96,SW,225,11.5,11.5,75,0.00,CLR,,0.04,WeatherDisplay:10.37,2013-03-12 03:35:00,
2013-03-11 22:40:00,32.5,25.5,29.96,SSW,202,12.7,13.0,75,0.00,CLR,,0.04,WeatherDisplay:10.37,2013-03-12 03:40:00,
2013-03-11 22:45:00,32.4,25.3,29.96,WSW,248,15.0,15.0,75,0.00,CLR,,0.04,WeatherDisplay:10.37,2013-03-12 03:45:00,
2013-03-11 22:50:00,32.4,25.6,29.96,WSW,248,8.3,8.3,76,0.00,CLR,,0.04,WeatherDisplay:10.37,2013-03-12 03:50:00,
2013-03-11 22:55:00,32.2,25.5,29.96,WSW,249,5.0,8.0,76,0.00,CLR,,0.04,WeatherDisplay:10.37,2013-03-12 03:55:00,
2013-03-11 23:00:00,32.2,25.8,29.96,WSW,238,6.0,7.0,77,0.00,CLR,,0.04,WeatherDisplay:10.37,2013-03-12 04:00:00,
2013-03-11 23:01:00,32.2,25.8,29.96,SW,225,6.9,6.9,77,0.00,CLR,,0.04,WeatherDisplay:10.37,2013-03-12 04:01:00,
2013-03-11 23:02:00,32.2,25.8,29.96,SW,225,6.9,6.9,77,0.00,CLR,,0.04,WeatherDisplay:10.37,2013-03-12 04:02:00,
2013-03-11 23:07:00,32.2,25.8,29.96,SSW,202,13.8,13.8,77,0.00,CLR,,0.04,WeatherDisplay:10.37,2013-03-12 04:07:00,
2013-03-11 23:12:00,32.0,25.9,29.96,WSW,248,9.2,9.2,78,0.00,CLR,,0.04,WeatherDisplay:10.37,2013-03-12 04:12:00,
2013-03-11 23:18:00,32.2,26.1,29.97,SW,225,9.2,9.2,78,0.00,CLR,,0.04,WeatherDisplay:10.37,2013-03-12 04:18:00,
2013-03-11 23:23:00,32.2,26.1,29.97,West,270,5.8,5.8,78,0.00,CLR,,0.04,WeatherDisplay:10.37,2013-03-12 04:23:00,
2013-03-11 23:28:00,32.2,26.1,29.97,West,270,7.4,7.4,78,0.00,CLR,,0.04,WeatherDisplay:10.37,2013-03-12 04:28:00,
2013-03-11 23:33:00,32.2,26.1,29.97,WSW,248,8.1,8.1,78,0.00,CLR,,0.04,WeatherDisplay:10.37,2013-03-12 04:33:00,
2013-03-11 23:38:00,32.2,26.1,29.97,WSW,248,5.1,5.1,78,0.00,CLR,,0.04,WeatherDisplay:10.37,2013-03-12 04:38:00,
2013-03-11 23:43:00,32.2,26.1,29.97,WSW,248,5.8,5.8,78,0.00,CLR,,0.04,WeatherDisplay:10.37,2013-03-12 04:43:00,
2013-03-11 23:48:00,32.2,26.1,29.98,WSW,248,9.2,9.2,78,0.00,CLR,,0.04,WeatherDisplay:10.37,2013-03-12 04:48:00,
2013-03-11 23:53:00,32.4,26.3,29.98,WSW,248,11.5,11.5,78,0.00,CLR,,0.04,WeatherDisplay:10.37,2013-03-12 04:53:00,
2013-03-11 23:58:00,32.4,26.0,29.98,SSW,202,6.9,6.9,77,0.00,CLR,,0.04,WeatherDisplay:10.37,2013-03-12 04:58:00,